Time;durP1;ratioP1;P1;durP2;ratioP2;P2;SDS_P1;SDS_P2;PMS_P1;PMS_P2;Temp;Humidity;BMP_temperature;BMP_pressure;BME280_temperature;BME280_humidity;BME280_pressure;Samples;Min_cycle;Max_cycle;Signal;HPM_P1;HPM_P2
2022/05/19 00:01:29;;;;;;;4.45;2.35;;;16.10;23.40;;;;;;5127163;27;34352;-75
2022/05/19 00:03:55;;;;;;;2.67;2.22;;;16.10;22.60;;;;;;5126902;27;35756;-75
2022/05/19 00:06:21;;;;;;;2.58;2.25;;;16.10;22.60;;;;;;5127316;27;34256;-76
2022/05/19 00:08:47;;;;;;;3.03;2.25;;;16.00;22.80;;;;;;5127071;27;34002;-76
2022/05/19 00:11:16;;;;;;;2.40;2.20;;;16.00;23.00;;;;;;5145441;27;34242;-76
2022/05/19 00:13:43;;;;;;;2.72;2.50;;;16.00;23.40;;;;;;5126600;27;36392;-75
2022/05/19 00:16:09;;;;;;;2.40;2.17;;;15.90;23.10;;;;;;5126239;27;34237;-74
2022/05/19 00:18:36;;;;;;;2.60;2.17;;;15.90;23.20;;;;;;5126667;27;34233;-75
2022/05/19 00:21:03;;;;;;;4.82;2.28;;;15.80;23.30;;;;;;5126677;27;34377;-75
2022/05/19 00:23:29;;;;;;;2.65;2.35;;;15.80;23.40;;;;;;5126557;27;35640;-75
2022/05/19 00:25:55;;;;;;;2.65;2.40;;;15.80;23.30;;;;;;5127010;27;34077;-75
2022/05/19 00:28:21;;;;;;;2.35;2.15;;;15.70;23.50;;;;;;5126686;27;34294;-75
2022/05/19 00:30:47;;;;;;;2.60;2.40;;;15.70;23.70;;;;;;5127116;27;34152;-75
2022/05/19 00:33:13;;;;;;;2.67;2.40;;;15.70;23.70;;;;;;5144268;27;35287;-75
2022/05/19 00:35:40;;;;;;;2.72;2.22;;;15.60;23.80;;;;;;5126827;27;34163;-76
2022/05/19 00:38:07;;;;;;;2.60;2.40;;;15.70;23.90;;;;;;5092658;27;34118;-75
2022/05/19 00:40:33;;;;;;;2.58;2.38;;;15.60;23.90;;;;;;5126280;27;34497;-75
2022/05/19 00:42:59;;;;;;;2.50;2.30;;;15.60;23.90;;;;;;5125921;27;35766;-75
2022/05/19 00:45:31;;;;;;;2.67;2.10;;;15.50;24.00;;;;;;5128854;27;34299;-76
2022/05/19 00:48:03;;;;;;;2.65;2.45;;;15.50;24.20;;;;;;5130970;27;34115;-75
2022/05/19 00:50:45;;;;;;;2.80;2.55;;;15.50;24.90;;;;;;5112440;27;34441;-74
2022/05/19 00:53:28;;;;;;;2.40;2.20;;;15.50;24.50;;;;;;5127961;27;36108;-74
2022/05/19 00:55:57;;;;;;;2.55;2.33;;;15.50;24.70;;;;;;5109137;27;34020;-75
2022/05/19 00:58:28;;;;;;;2.95;2.42;;;15.40;24.80;;;;;;5129415;27;34197;-74
2022/05/19 01:00:55;;;;;;;2.78;2.35;;;15.40;25.30;;;;;;5129486;27;34492;-75
2022/05/19 01:03:23;;;;;;;3.17;2.22;;;15.40;25.20;;;;;;5112437;27;35699;-77
2022/05/19 01:05:55;;;;;;;3.35;2.30;;;15.40;25.40;;;;;;5095633;27;34206;-76
2022/05/19 01:08:30;;;;;;;2.40;2.20;;;15.30;25.80;;;;;;5129700;27;34170;-76
2022/05/19 01:10:57;;;;;;;3.22;2.55;;;15.30;25.90;;;;;;5129556;27;34288;-75
2022/05/19 01:13:29;;;;;;;2.90;2.30;;;15.20;25.10;;;;;;5111920;27;35857;-75
2022/05/19 01:15:57;;;;;;;4.20;2.85;;;15.20;25.20;;;;;;5129571;27;34123;-76
2022/05/19 01:18:25;;;;;;;3.97;2.75;;;15.20;25.30;;;;;;5129439;27;34235;-76
2022/05/19 01:20:52;;;;;;;3.75;2.58;;;15.20;25.50;;;;;;5128954;27;34124;-76
2022/05/19 01:23:28;;;;;;;2.65;2.45;;;15.20;25.50;;;;;;5147144;27;34518;-76
2022/05/19 01:26:06;;;;;;;2.50;2.28;;;15.20;26.40;;;;;;5129466;27;34083;-76
2022/05/19 01:28:32;;;;;;;2.78;2.40;;;15.10;26.70;;;;;;5148031;27;34274;-76
2022/05/19 01:30:58;;;;;;;2.63;2.42;;;15.10;25.60;;;;;;5111815;27;34338;-75
2022/05/19 01:33:25;;;;;;;2.83;2.63;;;15.10;25.70;;;;;;5128664;27;35557;-76
2022/05/19 01:35:51;;;;;;;2.63;2.42;;;15.00;25.70;;;;;;5128998;27;34062;-76
2022/05/19 01:38:35;;;;;;;6.45;2.63;;;15.00;25.80;;;;;;5128883;27;34434;-75
2022/05/19 01:41:16;;;;;;;3.33;2.58;;;14.90;26.30;;;;;;5114344;27;34001;-76
2022/05/19 01:43:56;;;;;;;5.13;2.50;;;15.00;27.60;;;;;;5112385;27;36591;-76
2022/05/19 01:46:30;;;;;;;2.20;2.00;;;14.90;27.10;;;;;;5128919;27;34110;-76
2022/05/19 01:49:17;;;;;;;4.32;2.42;;;14.90;26.60;;;;;;5111697;27;34224;-77
2022/05/19 01:52:07;;;;;;;3.15;2.20;;;14.90;27.00;;;;;;5131407;27;34291;-76
2022/05/19 01:54:54;;;;;;;2.60;2.40;;;14.80;27.80;;;;;;5131330;27;34114;-76
2022/05/19 01:57:39;;;;;;;4.88;2.78;;;14.80;26.90;;;;;;5128916;27;34207;-76
2022/05/19 02:00:23;;;;;;;4.05;2.60;;;14.70;28.90;;;;;;5129021;27;34202;-76
2022/05/19 02:03:08;;;;;;;3.00;2.70;;;14.70;27.80;;;;;;5128675;27;34140;-75
2022/05/19 02:06:04;;;;;;;2.65;2.45;;;14.60;28.60;;;;;;5146537;27;34358;-76
2022/05/19 02:08:35;;;;;;;2.60;2.40;;;14.60;29.00;;;;;;5128840;27;34381;-76
2022/05/19 02:11:06;;;;;;;5.45;2.42;;;14.50;26.60;;;;;;5146802;27;34486;-76
2022/05/19 02:13:33;;;;;;;4.57;2.53;;;14.50;26.50;;;;;;5111432;27;34410;-76
2022/05/19 02:16:03;;;;;;;6.55;2.70;;;14.50;26.50;;;;;;5146296;27;34222;-76
2022/05/19 02:18:29;;;;;;;4.50;2.60;;;14.50;26.70;;;;;;5128404;27;34267;-75
2022/05/19 02:20:58;;;;;;;3.83;2.70;;;14.40;26.50;;;;;;5146833;27;34337;-76
2022/05/19 02:23:25;;;;;;;2.85;2.20;;;14.40;26.80;;;;;;5146362;27;34494;-76
2022/05/19 02:25:54;;;;;;;2.60;2.40;;;14.30;26.70;;;;;;5128379;27;35847;-76
2022/05/19 02:28:27;;;;;;;4.57;2.83;;;14.30;27.40;;;;;;5128536;27;34077;-76
2022/05/19 02:30:54;;;;;;;3.17;2.88;;;14.30;27.30;;;;;;5111129;27;34193;-76
2022/05/19 02:33:21;;;;;;;3.63;2.83;;;14.30;27.00;;;;;;5128349;27;34354;-76
2022/05/19 02:35:47;;;;;;;3.97;2.25;;;14.30;26.90;;;;;;5127805;27;35843;-76
2022/05/19 02:38:14;;;;;;;3.38;2.50;;;14.20;27.00;;;;;;5110770;27;34473;-76
2022/05/19 02:40:41;;;;;;;6.68;2.85;;;14.20;27.20;;;;;;5128278;27;34194;-76
2022/05/19 02:43:08;;;;;;;2.35;2.08;;;14.20;27.30;;;;;;5128598;27;34168;-76
2022/05/19 02:45:35;;;;;;;3.38;2.72;;;14.20;27.70;;;;;;5146024;27;34276;-76
2022/05/19 02:48:03;;;;;;;3.10;2.70;;;14.20;27.70;;;;;;5145954;27;33983;-76
2022/05/19 02:50:30;;;;;;;4.20;2.70;;;14.20;28.00;;;;;;5146206;27;34126;-76
2022/05/19 02:52:56;;;;;;;3.45;2.58;;;14.10;28.10;;;;;;5128358;27;34320;-76
2022/05/19 02:55:22;;;;;;;4.28;2.90;;;14.10;28.10;;;;;;5127545;27;35588;-76
2022/05/19 02:57:49;;;;;;;2.70;2.33;;;14.10;28.10;;;;;;5127896;27;34093;-76
2022/05/19 03:00:20;;;;;;;2.67;2.33;;;14.10;28.30;;;;;;5127949;27;34163;-76
2022/05/19 03:02:47;;;;;;;4.75;2.45;;;14.10;29.00;;;;;;5127910;27;34102;-76
2022/05/19 03:05:16;;;;;;;2.85;2.65;;;14.10;28.10;;;;;;5127142;27;35547;-76
2022/05/19 03:07:42;;;;;;;3.00;2.80;;;14.10;28.30;;;;;;5109810;27;34058;-76
2022/05/19 03:10:08;;;;;;;3.63;2.63;;;14.10;28.30;;;;;;5110436;27;34195;-76
2022/05/19 03:12:34;;;;;;;2.70;2.30;;;14.10;28.40;;;;;;5127266;27;34058;-76
2022/05/19 03:15:00;;;;;;;5.65;2.85;;;14.00;28.30;;;;;;5145865;27;34766;-76
2022/05/19 03:17:26;;;;;;;3.95;2.88;;;14.00;28.50;;;;;;5127643;27;34094;-76
2022/05/19 03:19:53;;;;;;;4.63;2.80;;;14.00;28.50;;;;;;5126650;27;34270;-77
2022/05/19 03:22:20;;;;;;;4.38;2.45;;;14.00;28.60;;;;;;5126993;27;34323;-76
2022/05/19 03:24:46;;;;;;;3.17;2.88;;;14.00;28.60;;;;;;5127358;27;35724;-76
2022/05/19 03:27:12;;;;;;;3.53;2.88;;;14.00;28.70;;;;;;5145831;27;34006;-76
2022/05/19 03:29:38;;;;;;;4.03;2.58;;;13.90;28.60;;;;;;5127420;27;34378;-76
2022/05/19 03:32:04;;;;;;;2.42;2.13;;;14.00;28.60;;;;;;5126820;27;34090;-76
2022/05/19 03:34:30;;;;;;;4.97;2.40;;;14.00;28.60;;;;;;5110296;27;36313;-76
2022/05/19 03:36:56;;;;;;;3.20;2.70;;;14.00;28.70;;;;;;5127086;27;34322;-76
2022/05/19 03:39:22;;;;;;;4.00;2.78;;;14.00;28.80;;;;;;5127048;27;34209;-77
2022/05/19 03:42:08;;;;;;;3.65;2.60;;;14.00;28.70;;;;;;5127016;27;34117;-76
2022/05/19 03:44:35;;;;;;;2.78;2.53;;;14.00;31.60;;;;;;5145262;27;35082;-76
2022/05/19 03:47:02;;;;;;;3.22;2.55;;;13.90;28.90;;;;;;5092590;27;34068;-76
2022/05/19 03:49:28;;;;;;;3.20;2.90;;;13.90;28.90;;;;;;5123699;27;34243;-76
2022/05/19 03:51:54;;;;;;;5.00;2.60;;;13.90;28.80;;;;;;5106674;27;34051;-76
2022/05/19 03:57:42;;;;;;;3.00;2.70;;;13.90;31.80;;;;;;5141904;27;34222;-76
2022/05/19 04:00:09;;;;;;;2.92;2.63;;;13.90;29.10;;;;;;5126596;27;34266;-76
2022/05/19 04:02:35;;;;;;;4.32;2.83;;;13.90;29.20;;;;;;5145542;27;34590;-76
2022/05/19 04:05:03;;;;;;;2.80;2.60;;;14.00;29.20;;;;;;5109368;27;36504;-76
2022/05/19 04:07:29;;;;;;;2.95;2.75;;;14.00;29.30;;;;;;5145128;27;34070;-75
2022/05/19 04:09:56;;;;;;;6.05;2.65;;;14.00;29.30;;;;;;5126614;27;34364;-76
2022/05/19 04:12:22;;;;;;;2.95;2.63;;;14.00;29.30;;;;;;5126969;27;33893;-76
2022/05/19 04:14:49;;;;;;;6.47;2.65;;;14.00;29.30;;;;;;5126569;27;36913;-76
2022/05/19 04:17:16;;;;;;;3.40;2.75;;;14.10;29.40;;;;;;5126743;27;34054;-76
2022/05/19 04:19:42;;;;;;;6.15;2.80;;;14.10;29.50;;;;;;5127889;27;34423;-77
2022/05/19 04:22:08;;;;;;;2.83;2.50;;;14.20;29.50;;;;;;5129968;27;34212;-76
2022/05/19 04:24:34;;;;;;;2.85;2.63;;;14.20;29.60;;;;;;5130005;27;36096;-76
2022/05/19 04:27:02;;;;;;;3.92;2.72;;;14.20;29.60;;;;;;5112947;27;34216;-76
2022/05/19 04:29:28;;;;;;;2.70;2.50;;;14.20;29.70;;;;;;5130307;27;34135;-76
2022/05/19 04:31:53;;;;;;;3.15;2.85;;;14.30;29.70;;;;;;5113036;27;34454;-76
2022/05/19 04:34:19;;;;;;;2.72;2.50;;;14.30;29.70;;;;;;5112844;27;34482;-76
2022/05/19 04:36:46;;;;;;;4.65;2.80;;;14.40;29.70;;;;;;5113197;27;34016;-75
2022/05/19 04:39:13;;;;;;;2.65;2.45;;;14.40;29.70;;;;;;5130093;27;34211;-76
2022/05/19 04:41:40;;;;;;;4.25;2.80;;;14.50;29.70;;;;;;5130005;27;34185;-76
2022/05/19 04:44:06;;;;;;;2.78;2.30;;;14.50;29.70;;;;;;5129826;27;35511;-76
2022/05/19 04:46:32;;;;;;;3.72;2.28;;;14.60;29.70;;;;;;5130374;27;34070;-76
2022/05/19 04:48:58;;;;;;;3.22;2.70;;;14.60;29.70;;;;;;5112781;27;34225;-76
2022/05/19 04:51:23;;;;;;;5.70;2.83;;;14.70;29.70;;;;;;5112367;27;34163;-76
2022/05/19 04:53:50;;;;;;;3.05;2.67;;;14.70;29.70;;;;;;5112729;27;34360;-76
2022/05/19 04:56:16;;;;;;;3.15;2.70;;;14.80;29.70;;;;;;5148091;27;34025;-76
2022/05/19 04:58:41;;;;;;;4.10;2.67;;;14.80;29.60;;;;;;5129223;27;34292;-76
2022/05/19 05:01:09;;;;;;;4.45;3.08;;;14.90;29.60;;;;;;5129414;27;34028;-76
2022/05/19 05:03:35;;;;;;;4.95;3.05;;;15.00;29.60;;;;;;5147237;27;34865;-76
2022/05/19 05:06:00;;;;;;;3.22;2.90;;;15.10;29.60;;;;;;5129658;27;34262;-76
2022/05/19 05:08:26;;;;;;;2.88;2.63;;;15.20;29.60;;;;;;5148212;27;34240;-76
2022/05/19 05:10:52;;;;;;;3.58;2.92;;;15.30;29.50;;;;;;5112538;27;34452;-76
2022/05/19 05:13:18;;;;;;;3.80;3.10;;;15.50;29.50;;;;;;5128770;27;35673;-75
2022/05/19 05:15:44;;;;;;;3.75;2.55;;;15.70;29.10;;;;;;5128699;27;34149;-76
2022/05/19 05:18:10;;;;;;;2.80;2.60;;;16.10;28.70;;;;;;5129460;27;34154;-75
2022/05/19 05:20:40;;;;;;;9.07;2.67;;;16.50;28.00;;;;;;5129448;27;34203;-76
2022/05/19 05:23:06;;;;;;;3.08;2.60;;;17.00;27.40;;;;;;5129347;27;34426;-76
2022/05/19 05:28:54;;;;;;;4.55;2.80;;;17.90;28.10;;;;;;5147422;27;34063;-76
2022/05/19 05:31:20;;;;;;;5.13;3.10;;;18.40;24.60;;;;;;5111144;27;34119;-76
2022/05/19 05:33:46;;;;;;;3.30;2.97;;;18.90;24.10;;;;;;5147556;27;34913;-75
2022/05/19 05:36:12;;;;;;;4.13;3.17;;;19.40;23.40;;;;;;5129321;27;34372;-76
2022/05/19 05:38:38;;;;;;;3.25;2.95;;;19.80;22.70;;;;;;5129108;27;34119;-76
2022/05/19 05:41:04;;;;;;;3.53;3.17;;;20.20;21.90;;;;;;5128710;27;34395;-76
2022/05/19 05:43:30;;;;;;;3.50;3.20;;;20.60;21.60;;;;;;5129037;27;34308;-76
2022/05/19 05:46:06;;;;;;;4.63;3.15;;;20.80;20.90;;;;;;5147547;27;34106;-76
2022/05/19 05:48:36;;;;;;;3.00;2.60;;;21.10;20.60;;;;;;5112187;27;34157;-76
2022/05/19 05:51:03;;;;;;;2.90;2.70;;;21.30;20.20;;;;;;5128763;27;34087;-76
2022/05/19 05:53:29;;;;;;;3.30;3.00;;;21.70;19.70;;;;;;5111330;27;36561;-76
2022/05/19 05:55:55;;;;;;;6.10;2.72;;;22.30;19.10;;;;;;5111261;27;34113;-76
2022/05/19 05:58:21;;;;;;;3.88;3.17;;;22.80;18.30;;;;;;5094551;27;34020;-76
2022/05/19 06:00:47;;;;;;;3.45;2.88;;;23.30;9.20;;;;;;5111373;27;34170;-76
2022/05/19 06:03:13;;;;;;;4.10;3.15;;;23.80;8.90;;;;;;5128427;27;35334;-76
2022/05/19 06:05:39;;;;;;;4.05;3.03;;;24.10;8.30;;;;;;5128383;27;34335;-76
2022/05/19 06:08:05;;;;;;;5.10;3.10;;;24.20;8.00;;;;;;5111046;27;34418;-76
2022/05/19 06:10:31;;;;;;;4.22;3.33;;;24.30;8.10;;;;;;5128425;27;34136;-75
2022/05/19 06:12:57;;;;;;;4.30;3.08;;;24.40;8.00;;;;;;5094244;27;36132;-75
2022/05/19 06:15:23;;;;;;;3.78;2.88;;;24.30;8.10;;;;;;5128203;27;33997;-75
2022/05/19 06:17:50;;;;;;;3.10;2.83;;;24.00;8.30;;;;;;5111103;27;34083;-76
2022/05/19 06:20:17;;;;;;;3.60;3.20;;;23.80;8.90;;;;;;5111510;27;34127;-76
2022/05/19 06:22:44;;;;;;;3.28;2.95;;;23.40;9.10;;;;;;5128258;27;34329;-75
2022/05/19 06:25:14;;;;;;;4.15;3.03;;;23.10;9.60;;;;;;5127428;27;34326;-76
2022/05/19 06:27:40;;;;;;;2.97;2.72;;;22.90;10.20;;;;;;5127392;27;34005;-76
2022/05/19 06:30:07;;;;;;;5.45;3.08;;;22.80;10.40;;;;;;5128699;27;34196;-76
2022/05/19 06:32:35;;;;;;;4.97;3.13;;;22.70;10.70;;;;;;5127965;27;34329;-76
2022/05/19 06:35:01;;;;;;;3.90;2.75;;;22.70;10.80;;;;;;5111035;27;34220;-76
2022/05/19 06:37:27;;;;;;;3.42;3.13;;;22.70;10.90;;;;;;5127967;27;33993;-75
2022/05/19 06:39:53;;;;;;;4.10;2.67;;;22.70;10.90;;;;;;5110750;27;34066;-75
2022/05/19 06:42:19;;;;;;;7.05;3.13;;;22.80;10.80;;;;;;5126367;27;35615;-76
2022/05/19 06:44:44;;;;;;;3.65;2.80;;;23.00;10.50;;;;;;5127651;27;34095;-75
2022/05/19 06:47:14;;;;;;;3.28;2.90;;;23.10;10.90;;;;;;5146204;27;34217;-76
2022/05/19 06:49:45;;;;;;;3.50;3.20;;;23.10;10.10;;;;;;5146143;27;34190;-76
2022/05/19 06:52:14;;;;;;;4.72;2.97;;;23.20;10.00;;;;;;5110044;27;35851;-76
2022/05/19 06:54:44;;;;;;;6.35;3.13;;;23.20;10.00;;;;;;5127495;27;34122;-76
2022/05/19 06:57:10;;;;;;;2.80;2.60;;;23.20;10.10;;;;;;5123503;27;34198;-75
2022/05/19 06:59:36;;;;;;;3.72;3.28;;;23.40;10.00;;;;;;5107391;27;34389;-76
2022/05/19 07:02:04;;;;;;;6.75;2.97;;;23.60;9.90;;;;;;5106727;27;35880;-75
2022/05/19 07:04:31;;;;;;;3.67;2.83;;;23.80;9.70;;;;;;5125143;27;34176;-76
2022/05/19 07:06:58;;;;;;;6.30;3.05;;;24.00;9.30;;;;;;5106904;27;34252;-76
2022/05/19 07:09:24;;;;;;;4.05;3.05;;;24.10;9.20;;;;;;5106861;27;34096;-76
2022/05/19 07:11:50;;;;;;;4.97;2.85;;;24.10;9.00;;;;;;5106398;27;35910;-76
2022/05/19 07:14:16;;;;;;;6.03;3.00;;;24.00;9.00;;;;;;5107468;27;34193;-76
2022/05/19 07:16:44;;;;;;;3.72;2.67;;;24.00;9.20;;;;;;5106678;27;34264;-76
2022/05/19 07:21:52;;;;;;;2.85;2.65;;;24.00;9.20;;;;;;5124370;27;34292;-75
2022/05/19 07:24:20;;;;;;;3.72;2.70;;;24.10;9.50;;;;;;5107081;27;34267;-75
2022/05/19 07:26:50;;;;;;;3.88;2.90;;;24.20;9.30;;;;;;5125229;27;34186;-75
2022/05/19 07:29:18;;;;;;;6.53;3.15;;;24.20;9.20;;;;;;5107061;27;34380;-76
2022/05/19 07:31:46;;;;;;;3.22;2.92;;;24.30;9.20;;;;;;5089399;27;36278;-76
2022/05/19 07:34:14;;;;;;;8.20;3.10;;;24.40;8.90;;;;;;5089738;27;34221;-76
2022/05/19 07:36:40;;;;;;;7.20;2.83;;;24.50;9.10;;;;;;5106611;27;34381;-76
2022/05/19 07:39:07;;;;;;;4.38;3.15;;;24.60;9.00;;;;;;5125694;27;34385;-76
2022/05/19 07:41:33;;;;;;;7.22;3.05;;;24.80;8.90;;;;;;5089445;27;35641;-76
2022/05/19 07:43:59;;;;;;;3.10;2.83;;;24.80;8.80;;;;;;5106174;27;34173;-76
2022/05/19 07:46:27;;;;;;;4.18;3.08;;;24.70;8.60;;;;;;5106126;27;34151;-75
2022/05/19 07:48:54;;;;;;;4.07;2.90;;;24.70;8.70;;;;;;5106900;27;34039;-76
2022/05/19 07:51:23;;;;;;;6.85;3.20;;;24.60;8.90;;;;;;5105531;27;36460;-74
2022/05/19 07:53:50;;;;;;;5.30;3.33;;;24.70;9.10;;;;;;5107476;27;34340;-76
2022/05/19 07:56:17;;;;;;;4.10;2.85;;;24.70;9.00;;;;;;5128117;27;34422;-77
2022/05/19 07:58:43;;;;;;;4.40;2.80;;;24.80;9.00;;;;;;5110191;27;34122;-75
2022/05/19 08:01:10;;;;;;;3.72;2.50;;;24.90;9.10;;;;;;5109355;27;36425;-76
2022/05/19 08:03:35;;;;;;;3.10;2.80;;;25.10;9.00;;;;;;5109671;27;34227;-76
2022/05/19 08:06:04;;;;;;;4.03;2.80;;;25.20;8.90;;;;;;5109983;27;34256;-75
2022/05/19 08:08:30;;;;;;;2.72;2.53;;;25.30;8.40;;;;;;5092588;27;34171;-75
2022/05/19 08:10:57;;;;;;;2.92;2.50;;;25.40;8.10;;;;;;5091549;27;36411;-76
2022/05/19 08:16:04;;;;;;;2.90;2.50;;;25.60;7.90;;;;;;5128092;27;34100;-76
2022/05/19 08:18:30;;;;;;;3.30;2.70;;;25.70;7.70;;;;;;5092894;27;34346;-76
2022/05/19 08:20:58;;;;;;;3.97;2.30;;;25.80;7.60;;;;;;5110482;27;34365;-76
2022/05/19 08:23:27;;;;;;;4.45;2.60;;;25.80;7.40;;;;;;5092844;27;34076;-76
2022/05/19 08:25:54;;;;;;;3.80;2.67;;;26.00;7.90;;;;;;5110237;27;34255;-76
2022/05/19 08:28:21;;;;;;;2.72;2.53;;;26.20;7.80;;;;;;5109503;27;34423;-75
2022/05/19 08:31:07;;;;;;;11.43;3.05;;;26.30;7.40;;;;;;5109749;27;35898;-76
2022/05/19 08:33:35;;;;;;;4.75;2.80;;;26.60;5.70;;;;;;5128597;27;34390;-76
2022/05/19 08:36:02;;;;;;;4.82;2.67;;;26.70;6.30;;;;;;5110599;27;34064;-76
2022/05/19 08:38:28;;;;;;;3.67;2.40;;;26.80;6.00;;;;;;5092877;27;34487;-75
2022/05/19 08:41:03;;;;;;;11.23;2.78;;;27.00;6.40;;;;;;5109889;27;35784;-76
2022/05/19 08:43:46;;;;;;;3.63;2.53;;;27.20;6.00;;;;;;5093683;27;34190;-76
2022/05/19 08:46:20;;;;;;;4.47;2.50;;;27.30;5.80;;;;;;5121403;27;34353;-76
2022/05/19 08:48:49;;;;;;;2.92;2.50;;;27.40;5.90;;;;;;5130772;27;34555;-76
2022/05/19 08:51:16;;;;;;;5.93;2.50;;;27.40;5.90;;;;;;5113346;27;34374;-76
2022/05/19 08:53:43;;;;;;;5.28;2.35;;;27.40;5.80;;;;;;5141095;27;34120;-76
2022/05/19 08:56:23;;;;;;;6.43;2.45;;;27.40;5.80;;;;;;5109205;27;34118;-76
2022/05/19 08:59:24;;;;;;;2.90;2.60;;;27.50;5.10;;;;;;5093681;27;34437;-77
2022/05/19 09:01:59;;;;;;;6.18;2.47;;;27.50;3.90;;;;;;5098128;27;35627;-76
2022/05/19 09:04:48;;;;;;;4.97;3.22;;;27.50;4.50;;;;;;5111049;27;34004;-76
2022/05/19 09:10:31;;;;;;;6.97;3.00;;;27.30;4.90;;;;;;5127037;27;34133;-76
2022/05/19 09:13:11;;;;;;;6.22;3.05;;;27.30;5.40;;;;;;5127416;27;35137;-76
2022/05/19 09:15:37;;;;;;;5.53;2.90;;;27.30;4.70;;;;;;5109048;27;34169;-76
2022/05/19 09:18:04;;;;;;;3.50;2.80;;;27.20;5.50;;;;;;5108606;27;34288;-76
2022/05/19 09:20:48;;;;;;;4.90;2.67;;;27.10;5.50;;;;;;5109024;27;34239;-75
2022/05/19 09:23:14;;;;;;;3.22;2.92;;;27.10;5.80;;;;;;5123990;27;36812;-76
2022/05/19 09:25:47;;;;;;;3.95;3.03;;;27.20;5.70;;;;;;5150021;27;34296;-76
2022/05/19 09:28:23;;;;;;;5.13;2.72;;;27.30;5.30;;;;;;5149479;27;34284;-76
2022/05/19 09:30:53;;;;;;;2.95;2.60;;;27.30;5.70;;;;;;5115656;27;35036;-77
2022/05/19 09:33:29;;;;;;;4.45;2.30;;;27.20;6.20;;;;;;5108403;27;34504;-76
2022/05/19 09:35:58;;;;;;;2.90;2.53;;;27.30;5.70;;;;;;5108315;27;34428;-75
2022/05/19 09:38:33;;;;;;;2.65;2.42;;;27.40;5.80;;;;;;5108061;27;34265;-75
2022/05/19 09:41:03;;;;;;;3.10;2.30;;;27.50;4.60;;;;;;5108374;27;34548;-76
2022/05/19 09:43:34;;;;;;;3.75;2.42;;;27.70;4.90;;;;;;5107978;27;36005;-75
2022/05/19 09:46:07;;;;;;;4.45;2.60;;;28.10;5.10;;;;;;5091821;27;34115;-74
2022/05/19 09:48:36;;;;;;;3.47;2.50;;;28.60;4.40;;;;;;5108709;27;34167;-75
2022/05/19 09:51:08;;;;;;;4.40;2.63;;;29.00;4.30;;;;;;5108205;27;34321;-75
2022/05/19 09:53:49;;;;;;;2.83;2.13;;;29.50;3.90;;;;;;5109496;27;35943;-76
2022/05/19 09:56:18;;;;;;;2.90;2.15;;;29.90;1.20;;;;;;5091842;27;34345;-76
2022/05/19 09:58:48;;;;;;;4.28;2.35;;;30.20;2.40;;;;;;5108960;27;34114;-78
2022/05/19 10:01:27;;;;;;;3.95;2.08;;;30.40;1.70;;;;;;5091485;27;34182;-76
2022/05/19 10:03:58;;;;;;;2.33;2.13;;;30.50;1.20;;;;;;5077684;27;35798;-77
2022/05/19 10:06:36;;;;;;;5.25;2.50;;;30.80;1.50;;;;;;5126665;27;34280;-77
2022/05/19 10:09:15;;;;;;;5.80;2.28;;;31.00;1.00;;;;;;5146247;27;34057;-76
2022/05/19 10:12:00;;;;;;;3.08;2.30;;;31.00;1.00;;;;;;5092247;27;34137;-76
2022/05/19 10:14:31;;;;;;;3.50;2.28;;;31.00;1.00;;;;;;5110839;27;34272;-78
2022/05/19 10:17:21;;;;;;;2.42;2.00;;;31.10;1.00;;;;;;5109407;27;34142;-75
2022/05/19 10:20:07;;;;;;;2.90;1.85;;;31.00;1.00;;;;;;5109565;27;35576;-77
2022/05/19 10:23:03;;;;;;;5.50;2.15;;;31.00;1.00;;;;;;5093420;27;34083;-79
2022/05/19 10:25:58;;;;;;;2.67;2.08;;;30.80;1.00;;;;;;5077008;28;35726;-76
2022/05/19 10:31:48;;;;;;;2.85;2.45;;;30.60;1.00;;;;;;5115551;27;34201;-77
2022/05/19 10:34:41;;;;;;;5.55;2.38;;;30.60;1.00;;;;;;5088204;28;34408;-76
2022/05/19 10:37:38;;;;;;;4.82;2.45;;;30.50;1.00;;;;;;5106992;28;34372;-76
2022/05/19 10:40:24;;;;;;;3.75;2.35;;;30.30;1.00;;;;;;5088095;28;34122;-75
2022/05/19 10:43:16;;;;;;;4.72;2.60;;;30.40;1.00;;;;;;5114568;27;34187;-76
2022/05/19 10:45:47;;;;;;;3.72;2.58;;;30.80;1.00;;;;;;5093541;27;34379;-75
2022/05/19 10:48:49;;;;;;;5.68;2.53;;;30.90;1.00;;;;;;5071997;27;35829;-76
2022/05/19 10:51:22;;;;;;;3.80;2.67;;;31.00;1.00;;;;;;5114893;27;34497;-77
2022/05/19 10:54:01;;;;;;;5.70;2.72;;;30.90;1.00;;;;;;5108190;27;34099;-77
2022/05/19 10:56:58;;;;;;;5.78;2.80;;;31.00;1.00;;;;;;5091114;27;34150;-75
2022/05/19 10:59:49;;;;;;;3.10;2.80;;;31.40;1.00;;;;;;5107583;27;36535;-75
2022/05/19 11:02:44;;;;;;;4.45;2.55;;;32.00;1.00;;;;;;5107607;27;34002;-77
2022/05/19 11:05:39;;;;;;;4.82;2.40;;;32.30;1.00;;;;;;5090655;27;34044;-76
2022/05/19 11:08:28;;;;;;;6.10;2.78;;;32.50;1.00;;;;;;5106989;27;34138;-77
2022/05/19 11:11:17;;;;;;;3.90;2.58;;;32.60;1.00;;;;;;5126523;27;34180;-77
2022/05/19 11:14:00;;;;;;;6.18;2.75;;;32.60;1.00;;;;;;5091318;27;34275;-76
2022/05/19 11:16:53;;;;;;;6.10;2.70;;;32.50;1.00;;;;;;5108331;27;34362;-77
2022/05/19 11:19:27;;;;;;;4.80;2.65;;;32.50;1.00;;;;;;5075855;27;33871;-77
2022/05/19 11:21:58;;;;;;;3.92;2.60;;;32.60;1.00;;;;;;5108067;27;36770;-77
2022/05/19 11:27:28;;;;;;;5.50;2.08;;;32.40;1.00;;;;;;5126293;27;34296;-77
2022/05/19 11:30:00;;;;;;;5.47;3.03;;;32.30;1.00;;;;;;5125337;27;34431;-76
2022/05/19 11:32:34;;;;;;;3.88;2.67;;;32.30;1.00;;;;;;5106615;27;35392;-77
2022/05/19 11:35:18;;;;;;;4.97;2.90;;;32.40;1.00;;;;;;5106434;27;34328;-76
2022/05/19 11:37:57;;;;;;;5.30;2.95;;;32.30;1.00;;;;;;5107350;27;34204;-75
2022/05/19 11:40:44;;;;;;;2.65;2.45;;;32.40;1.00;;;;;;5107700;27;34590;-75
2022/05/19 11:43:27;;;;;;;3.83;2.63;;;32.30;1.00;;;;;;5092410;27;35793;-75
2022/05/19 11:46:14;;;;;;;4.43;2.83;;;32.10;1.00;;;;;;5080219;27;34108;-76
2022/05/19 11:57:37;;;;;;;5.80;2.72;;;31.80;1.00;;;;;;5105384;28;34135;-76
2022/05/19 12:00:06;;;;;;;6.40;2.90;;;31.90;1.00;;;;;;5078176;27;34208;-76
2022/05/19 12:02:40;;;;;;;5.75;3.05;;;31.70;1.00;;;;;;5107563;27;34127;-77
2022/05/19 12:05:13;;;;;;;2.67;2.47;;;31.60;1.00;;;;;;5090231;27;34379;-78
2022/05/19 12:07:56;;;;;;;6.85;2.67;;;31.50;1.00;;;;;;5125840;27;34422;-76
2022/05/19 12:10:30;;;;;;;2.92;2.60;;;31.40;1.00;;;;;;5106700;27;34209;-78
2022/05/19 12:13:00;;;;;;;3.85;2.50;;;31.40;1.00;;;;;;5107070;27;34200;-75
2022/05/19 12:15:51;;;;;;;5.05;2.80;;;31.40;1.00;;;;;;5106864;27;36727;-76
2022/05/19 12:18:57;;;;;;;4.57;2.75;;;31.50;1.00;;;;;;5077303;27;34418;-76
2022/05/19 12:21:39;;;;;;;2.92;2.70;;;31.40;1.00;;;;;;5082646;27;34320;-75
2022/05/19 12:24:08;;;;;;;2.42;2.22;;;31.20;1.00;;;;;;5106438;27;34086;-75
2022/05/19 12:26:53;;;;;;;2.53;2.33;;;31.00;1.00;;;;;;5084424;27;34583;-77
2022/05/19 12:29:38;;;;;;;2.67;2.25;;;31.00;1.00;;;;;;5090566;27;34194;-77
2022/05/19 12:32:10;;;;;;;7.82;2.30;;;31.20;7.20;;;;;;5089583;27;34195;-76
2022/05/19 12:34:44;;;;;;;6.40;2.72;;;31.40;7.50;;;;;;5107741;27;34021;-76
2022/05/19 12:37:33;;;;;;;3.90;2.50;;;31.70;7.70;;;;;;5090563;27;36566;-77
2022/05/19 12:40:21;;;;;;;4.22;2.38;;;32.00;6.10;;;;;;5094596;27;34322;-76
2022/05/19 12:42:48;;;;;;;4.50;2.50;;;32.10;6.00;;;;;;5094169;27;34179;-75
2022/05/19 12:45:19;;;;;;;5.20;2.35;;;32.20;6.70;;;;;;5093643;27;34167;-75
2022/05/19 12:48:20;;;;;;;3.88;2.50;;;32.30;6.30;;;;;;5093340;27;35968;-77
2022/05/19 12:50:51;;;;;;;2.95;2.22;;;32.50;5.00;;;;;;5110806;27;34008;-77
2022/05/19 12:53:42;;;;;;;5.68;2.33;;;32.40;6.30;;;;;;5110433;27;34193;-77
2022/05/19 12:56:10;;;;;;;3.65;2.55;;;32.40;5.00;;;;;;5093662;27;34635;-76
2022/05/19 12:58:59;;;;;;;5.90;2.05;;;32.30;6.60;;;;;;5110238;27;35671;-78
2022/05/19 13:01:34;;;;;;;4.53;2.00;;;32.10;5.10;;;;;;5109673;27;34207;-76
2022/05/19 13:04:07;;;;;;;4.95;2.22;;;32.00;6.30;;;;;;5128306;27;34132;-78
2022/05/19 13:06:37;;;;;;;4.32;2.20;;;32.20;6.20;;;;;;5111354;27;34304;-76
2022/05/19 13:09:08;;;;;;;2.38;1.98;;;32.40;6.50;;;;;;5110287;27;36074;-77
2022/05/19 13:11:43;;;;;;;2.10;1.90;;;32.50;6.20;;;;;;5109943;27;34175;-76
2022/05/19 13:14:15;;;;;;;4.00;2.00;;;32.80;4.70;;;;;;5110855;27;34062;-77
2022/05/19 13:16:45;;;;;;;4.35;2.20;;;32.90;5.50;;;;;;5093612;27;34564;-77
2022/05/19 13:19:27;;;;;;;5.97;2.33;;;33.20;5.80;;;;;;5128301;27;34304;-77
2022/05/19 13:21:58;;;;;;;5.63;2.50;;;33.40;3.60;;;;;;5110011;27;34329;-76
2022/05/19 13:24:27;;;;;;;4.30;2.08;;;33.60;5.20;;;;;;5089701;28;33667;-79
2022/05/19 13:32:24;;;;;;;1.83;1.63;;;33.40;5.00;;;;;;5128269;27;34055;-76
2022/05/19 13:34:53;;;;;;;7.70;1.77;;;33.30;4.40;;;;;;5110263;27;34017;-76
2022/05/19 13:37:36;;;;;;;4.72;2.00;;;33.00;5.20;;;;;;5092615;27;34482;-77
2022/05/19 13:40:27;;;;;;;3.53;2.03;;;32.90;4.20;;;;;;5109553;27;35792;-77
2022/05/19 13:42:58;;;;;;;5.13;1.88;;;33.00;3.90;;;;;;5109330;27;34292;-76
2022/05/19 13:45:35;;;;;;;2.40;1.90;;;33.00;4.80;;;;;;5110492;27;34286;-77
2022/05/19 13:48:12;;;;;;;5.05;1.90;;;33.10;4.30;;;;;;5128704;27;34120;-78
2022/05/19 13:50:39;;;;;;;1.90;1.67;;;33.00;3.20;;;;;;5092621;27;35704;-77
2022/05/19 13:53:06;;;;;;;6.53;2.30;;;33.10;4.80;;;;;;5109020;27;34138;-78